createdAt,value
2018-11-05T00:01:33.601Z,35
2018-11-05T00:06:36.217Z,33
2018-11-05T00:11:38.494Z,32
2018-11-05T00:16:40.921Z,30
2018-11-05T00:21:43.362Z,30
2018-11-05T00:26:45.796Z,28
2018-11-05T00:31:48.236Z,29
2018-11-05T00:36:50.677Z,29
2018-11-05T00:41:53.125Z,30
2018-11-05T00:46:55.564Z,31
2018-11-05T00:51:58.003Z,31
2018-11-05T00:57:00.479Z,30
2018-11-05T01:02:02.889Z,32
2018-11-05T01:07:05.340Z,33
2018-11-05T01:12:07.784Z,31
2018-11-05T01:17:10.224Z,33
2018-11-05T01:22:12.659Z,33
2018-11-05T01:27:15.128Z,34
2018-11-05T01:32:17.550Z,32
2018-11-05T01:37:20.099Z,33
2018-11-05T01:42:22.413Z,36
2018-11-05T01:47:24.886Z,35
2018-11-05T01:52:27.318Z,34
2018-11-05T01:57:29.753Z,34
2018-11-05T02:02:32.173Z,35
2018-11-05T02:07:34.606Z,35
2018-11-05T02:12:37.069Z,34
2018-11-05T02:17:39.500Z,31
2018-11-05T02:22:41.927Z,32
2018-11-05T02:27:44.363Z,33
2018-11-05T02:32:46.887Z,33
2018-11-05T02:37:49.255Z,32
2018-11-05T02:42:51.974Z,31
2018-11-05T02:47:54.139Z,33
2018-11-05T02:52:56.597Z,31
2018-11-05T02:57:59.010Z,33
2018-11-05T03:03:01.526Z,32
2018-11-05T03:08:03.894Z,32
2018-11-05T03:13:06.328Z,30
2018-11-05T03:18:08.849Z,33
2018-11-05T03:23:11.256Z,31
2018-11-05T03:28:13.698Z,32
2018-11-05T03:33:16.088Z,32
2018-11-05T03:38:18.562Z,29
2018-11-05T03:43:20.972Z,30
2018-11-05T03:48:23.459Z,30
2018-11-05T03:53:25.883Z,31
2018-11-05T03:58:28.300Z,30
2018-11-05T04:03:30.858Z,30
2018-11-05T04:08:33.175Z,29
2018-11-05T04:13:35.619Z,30
2018-11-05T04:18:38.060Z,29
2018-11-05T04:23:40.511Z,30
2018-11-05T04:28:42.937Z,29
2018-11-05T04:33:45.370Z,28
2018-11-05T04:38:47.841Z,28
2018-11-05T04:48:52.692Z,28
2018-11-05T04:53:55.137Z,29
2018-11-05T04:58:57.573Z,29
2018-11-05T05:09:07.474Z,30
2018-11-05T05:14:04.924Z,30
2018-11-05T05:19:07.463Z,31
2018-11-05T05:24:09.818Z,31
2018-11-05T05:29:12.215Z,31
2018-11-05T05:34:14.703Z,31
2018-11-05T05:44:19.526Z,32
2018-11-05T05:49:22.082Z,30
2018-11-05T05:54:24.465Z,30
2018-11-05T05:59:26.879Z,31
2018-11-05T06:04:29.349Z,31
2018-11-05T06:09:31.732Z,32
2018-11-05T06:14:34.204Z,31
2018-11-05T06:19:36.617Z,32
2018-11-05T06:24:39.041Z,33
2018-11-05T06:29:41.513Z,32
2018-11-05T06:34:43.938Z,33
2018-11-05T06:39:46.383Z,33
2018-11-05T06:44:48.871Z,32
2018-11-05T06:49:51.253Z,32
2018-11-05T06:54:53.688Z,33
2018-11-05T06:59:56.154Z,32
2018-11-05T07:04:58.719Z,34
2018-11-05T07:10:01.120Z,33
2018-11-05T07:15:03.458Z,35
2018-11-05T07:20:06.000Z,33
2018-11-05T07:25:08.390Z,30
2018-11-05T07:30:10.790Z,31
2018-11-05T07:35:13.227Z,30
2018-11-05T07:40:15.664Z,29
2018-11-05T07:45:18.128Z,30
2018-11-05T07:50:20.673Z,31
2018-11-05T07:55:23.009Z,28
2018-11-05T08:00:25.441Z,29
2018-11-05T08:05:27.863Z,29
2018-11-05T08:10:30.294Z,30
2018-11-05T08:15:32.771Z,29
2018-11-05T08:20:35.235Z,29
2018-11-05T08:25:37.625Z,29
2018-11-05T08:30:40.074Z,29
2018-11-05T08:35:42.567Z,29
2018-11-05T08:40:44.969Z,29
2018-11-05T08:45:47.380Z,27
2018-11-05T08:50:50.021Z,28
2018-11-05T08:55:52.267Z,29
2018-11-05T09:00:54.748Z,26
2018-11-05T09:05:57.170Z,26
2018-11-05T09:10:59.944Z,25
2018-11-05T09:16:02.188Z,26
2018-11-05T09:21:04.466Z,25
2018-11-05T09:26:06.984Z,25
2018-11-05T09:31:09.342Z,25
2018-11-05T09:36:11.794Z,26
2018-11-05T09:41:14.239Z,25
2018-11-05T09:46:16.667Z,24
2018-11-05T09:51:19.113Z,25
2018-11-05T09:56:21.580Z,24
2018-11-05T10:01:23.998Z,25
2018-11-05T10:06:26.423Z,24
2018-11-05T10:11:28.866Z,25
2018-11-05T10:16:31.310Z,24
2018-11-05T10:21:33.759Z,24
2018-11-05T10:26:36.187Z,24
2018-11-05T10:31:38.650Z,24
2018-11-05T10:36:41.065Z,23
2018-11-05T10:41:43.549Z,23
2018-11-05T10:46:45.948Z,23
2018-11-05T10:51:48.470Z,23
2018-11-05T10:56:50.898Z,23
2018-11-05T11:01:53.273Z,22
2018-11-05T11:06:55.713Z,23
2018-11-05T11:11:58.153Z,23
2018-11-05T11:17:00.599Z,22
2018-11-05T11:22:03.157Z,21
2018-11-05T11:27:05.474Z,21
2018-11-05T11:32:07.925Z,23
2018-11-05T11:37:10.435Z,22
2018-11-05T11:42:12.912Z,22
2018-11-05T11:47:15.352Z,22
2018-11-05T11:52:17.721Z,23
2018-11-05T11:57:20.128Z,23
2018-11-05T12:02:22.561Z,24
2018-11-05T12:07:24.999Z,24
2018-11-05T12:12:27.430Z,24
2018-11-05T12:17:29.892Z,22
2018-11-05T12:22:32.325Z,24
2018-11-05T12:27:34.752Z,25
2018-11-05T12:32:37.203Z,24
2018-11-05T12:37:39.635Z,25
2018-11-05T12:42:42.090Z,23
2018-11-05T12:47:44.562Z,23
2018-11-05T12:52:46.967Z,24
2018-11-05T12:57:49.395Z,23
2018-11-05T13:02:51.849Z,24
2018-11-05T13:07:54.280Z,25
2018-11-05T13:12:56.766Z,25
2018-11-05T13:17:59.177Z,24
2018-11-05T13:23:01.614Z,24
2018-11-05T13:28:04.089Z,24
2018-11-05T13:33:06.497Z,25
2018-11-05T13:43:11.389Z,26
2018-11-05T13:48:14.218Z,24
2018-11-05T13:53:16.240Z,25
2018-11-05T13:58:18.716Z,26
2018-11-05T14:03:21.126Z,26
2018-11-05T14:08:23.570Z,26
2018-11-05T14:13:26.160Z,25
2018-11-05T14:18:28.511Z,25
2018-11-05T14:23:30.893Z,26
2018-11-05T14:28:33.837Z,26
2018-11-05T14:33:35.759Z,26
2018-11-05T14:38:38.240Z,27
2018-11-05T14:43:40.706Z,27
2018-11-05T14:48:43.144Z,28
2018-11-05T14:53:45.531Z,28
2018-11-05T14:58:47.987Z,27
2018-11-05T15:03:50.405Z,29
2018-11-05T15:08:52.859Z,29
2018-11-05T15:13:55.291Z,29
2018-11-05T15:18:58.060Z,34
2018-11-05T15:24:00.168Z,49
2018-11-05T15:29:02.635Z,40
2018-11-05T15:34:05.085Z,29
2018-11-05T15:39:07.532Z,30
2018-11-05T15:44:09.959Z,30
2018-11-05T15:49:12.382Z,32
2018-11-05T15:54:14.965Z,32
2018-11-05T15:59:17.273Z,32
2018-11-05T16:04:19.744Z,31
2018-11-05T16:09:22.347Z,27
2018-11-05T16:14:24.587Z,29
2018-11-05T16:19:27.012Z,28
2018-11-05T16:24:29.576Z,28
2018-11-05T16:29:31.911Z,28
2018-11-05T16:34:34.404Z,29
2018-11-05T16:39:36.929Z,28
2018-11-05T16:44:39.244Z,29
2018-11-05T16:49:41.661Z,28
2018-11-05T16:54:44.162Z,28
2018-11-05T16:59:46.563Z,27
2018-11-05T17:04:48.985Z,26
2018-11-05T17:09:51.419Z,26
2018-11-05T17:14:53.863Z,26
2018-11-05T17:19:56.299Z,27
2018-11-05T17:24:58.730Z,27
2018-11-05T17:30:01.203Z,26
2018-11-05T17:35:03.615Z,26
2018-11-05T17:40:06.123Z,27
2018-11-05T17:45:08.510Z,26
2018-11-05T17:50:10.951Z,26
2018-11-05T17:55:13.383Z,26
2018-11-05T18:00:15.887Z,26
2018-11-05T18:05:18.254Z,26
2018-11-05T18:10:20.707Z,25
2018-11-05T18:15:23.160Z,25
2018-11-05T18:20:25.616Z,25
2018-11-05T18:25:28.032Z,26
2018-11-05T18:30:30.466Z,25
2018-11-05T18:35:32.920Z,26
2018-11-05T18:40:35.340Z,26
2018-11-05T18:45:37.973Z,25
2018-11-05T18:50:40.240Z,27
2018-11-05T18:55:42.662Z,26
2018-11-05T19:00:45.111Z,26
2018-11-05T19:05:47.540Z,27
2018-11-05T19:10:49.985Z,26
2018-11-05T19:15:52.441Z,26
2018-11-05T19:20:54.865Z,27
2018-11-05T19:25:57.298Z,27
2018-11-05T19:30:59.750Z,28
2018-11-05T19:36:02.278Z,28
2018-11-05T19:41:04.625Z,28
2018-11-05T19:46:07.076Z,29
2018-11-05T19:51:09.507Z,29
2018-11-05T19:56:12.086Z,28
2018-11-05T20:01:14.420Z,28
2018-11-05T20:06:16.981Z,28
2018-11-05T20:11:19.298Z,28
2018-11-05T20:16:21.721Z,27
2018-11-05T20:21:24.150Z,27
2018-11-05T20:26:26.582Z,28
2018-11-05T20:31:29.278Z,27
2018-11-05T20:36:31.467Z,26
2018-11-05T20:41:33.901Z,27
2018-11-05T20:46:36.385Z,24
2018-11-05T20:51:38.782Z,25
2018-11-05T20:56:41.254Z,26
2018-11-05T21:01:43.676Z,25
2018-11-05T21:06:46.154Z,26
2018-11-05T21:11:48.546Z,25
2018-11-05T21:16:51.053Z,26
2018-11-05T21:21:53.723Z,26
2018-11-05T21:26:56.010Z,25
2018-11-05T21:31:58.303Z,26
2018-11-05T21:37:00.743Z,26
2018-11-05T21:42:03.187Z,26
2018-11-05T21:47:05.852Z,27
2018-11-05T21:52:08.060Z,27
2018-11-05T21:57:10.507Z,27
2018-11-05T22:02:13.019Z,28
2018-11-05T22:07:15.436Z,27
2018-11-05T22:12:17.841Z,26
2018-11-05T22:17:20.302Z,27
2018-11-05T22:22:22.730Z,26
2018-11-05T22:27:25.267Z,27
2018-11-05T22:32:27.593Z,29
2018-11-05T22:37:30.034Z,30
2018-11-05T22:42:32.461Z,29
2018-11-05T22:47:34.896Z,28
2018-11-05T22:52:37.345Z,29
2018-11-05T22:57:39.786Z,29
2018-11-05T23:02:42.233Z,28
2018-11-05T23:07:44.663Z,28
2018-11-05T23:12:47.114Z,28
2018-11-05T23:17:49.584Z,29
2018-11-05T23:22:51.997Z,30
2018-11-05T23:27:54.427Z,29
2018-11-05T23:32:56.875Z,30
2018-11-05T23:37:59.331Z,29
2018-11-05T23:43:01.775Z,30
2018-11-05T23:48:04.203Z,28
2018-11-05T23:53:06.624Z,28
2018-11-05T23:58:09.071Z,28
